sensor_id;sensor_type;location;lat;lon;timestamp;P1;durP1;ratioP1;P2;durP2;ratioP2
22737;SDS011;11536;50.860;4.286;2023-02-28T00:01:01;11.00;;;4.93;;
22737;SDS011;11536;50.860;4.286;2023-02-28T00:03:27;9.05;;;4.97;;
22737;SDS011;11536;50.860;4.286;2023-02-28T00:05:52;8.18;;;5.00;;
22737;SDS011;11536;50.860;4.286;2023-02-28T00:08:18;10.18;;;5.13;;
22737;SDS011;11536;50.860;4.286;2023-02-28T00:10:43;9.73;;;4.95;;
22737;SDS011;11536;50.860;4.286;2023-02-28T00:13:09;9.88;;;5.30;;
22737;SDS011;11536;50.860;4.286;2023-02-28T00:15:35;10.85;;;5.40;;
22737;SDS011;11536;50.860;4.286;2023-02-28T00:18:01;9.30;;;5.25;;
22737;SDS011;11536;50.860;4.286;2023-02-28T00:20:28;9.82;;;5.15;;
22737;SDS011;11536;50.860;4.286;2023-02-28T00:22:54;9.63;;;5.00;;
22737;SDS011;11536;50.860;4.286;2023-02-28T00:25:24;10.57;;;5.43;;
22737;SDS011;11536;50.860;4.286;2023-02-28T00:27:50;10.00;;;4.78;;
22737;SDS011;11536;50.860;4.286;2023-02-28T00:30:20;8.65;;;4.93;;
22737;SDS011;11536;50.860;4.286;2023-02-28T00:32:47;11.15;;;5.30;;
22737;SDS011;11536;50.860;4.286;2023-02-28T00:35:14;11.60;;;5.22;;
22737;SDS011;11536;50.860;4.286;2023-02-28T00:37:40;13.68;;;5.30;;
22737;SDS011;11536;50.860;4.286;2023-02-28T00:40:06;13.25;;;5.32;;
22737;SDS011;11536;50.860;4.286;2023-02-28T00:42:33;12.60;;;5.60;;
22737;SDS011;11536;50.860;4.286;2023-02-28T00:44:59;8.02;;;4.90;;
22737;SDS011;11536;50.860;4.286;2023-02-28T00:47:25;12.57;;;5.40;;
22737;SDS011;11536;50.860;4.286;2023-02-28T00:49:51;10.82;;;5.35;;
22737;SDS011;11536;50.860;4.286;2023-02-28T00:52:17;13.15;;;5.47;;
22737;SDS011;11536;50.860;4.286;2023-02-28T00:54:42;9.38;;;5.28;;
22737;SDS011;11536;50.860;4.286;2023-02-28T00:57:08;9.25;;;4.88;;
22737;SDS011;11536;50.860;4.286;2023-02-28T00:59:33;9.82;;;5.05;;
22737;SDS011;11536;50.860;4.286;2023-02-28T01:01:59;8.43;;;5.20;;
22737;SDS011;11536;50.860;4.286;2023-02-28T01:04:25;9.38;;;5.50;;
22737;SDS011;11536;50.860;4.286;2023-02-28T01:06:51;15.50;;;5.55;;
22737;SDS011;11536;50.860;4.286;2023-02-28T01:09:16;12.10;;;6.35;;
22737;SDS011;11536;50.860;4.286;2023-02-28T01:11:42;9.60;;;5.72;;
22737;SDS011;11536;50.860;4.286;2023-02-28T01:14:09;11.10;;;6.00;;
22737;SDS011;11536;50.860;4.286;2023-02-28T01:16:37;10.98;;;5.68;;
22737;SDS011;11536;50.860;4.286;2023-02-28T01:19:03;11.95;;;5.30;;
22737;SDS011;11536;50.860;4.286;2023-02-28T01:21:29;13.57;;;5.63;;
22737;SDS011;11536;50.860;4.286;2023-02-28T01:23:56;11.45;;;6.22;;
22737;SDS011;11536;50.860;4.286;2023-02-28T01:26:23;10.40;;;6.00;;
22737;SDS011;11536;50.860;4.286;2023-02-28T01:28:49;10.90;;;5.78;;
22737;SDS011;11536;50.860;4.286;2023-02-28T01:31:15;13.18;;;6.32;;
22737;SDS011;11536;50.860;4.286;2023-02-28T01:33:42;8.75;;;5.40;;
22737;SDS011;11536;50.860;4.286;2023-02-28T01:36:12;12.02;;;5.68;;
22737;SDS011;11536;50.860;4.286;2023-02-28T01:38:39;14.95;;;6.80;;
22737;SDS011;11536;50.860;4.286;2023-02-28T01:41:06;11.65;;;6.00;;
22737;SDS011;11536;50.860;4.286;2023-02-28T01:43:52;10.30;;;5.70;;
22737;SDS011;11536;50.860;4.286;2023-02-28T01:46:22;10.93;;;5.97;;
22737;SDS011;11536;50.860;4.286;2023-02-28T01:48:49;11.30;;;6.05;;
22737;SDS011;11536;50.860;4.286;2023-02-28T01:51:31;13.55;;;5.90;;
22737;SDS011;11536;50.860;4.286;2023-02-28T01:54:10;10.98;;;6.00;;
22737;SDS011;11536;50.860;4.286;2023-02-28T01:56:41;11.57;;;6.20;;
22737;SDS011;11536;50.860;4.286;2023-02-28T01:59:13;16.48;;;6.00;;
22737;SDS011;11536;50.860;4.286;2023-02-28T02:01:45;11.15;;;6.00;;
22737;SDS011;11536;50.860;4.286;2023-02-28T02:04:11;11.27;;;6.45;;
22737;SDS011;11536;50.860;4.286;2023-02-28T02:06:38;17.80;;;6.97;;
22737;SDS011;11536;50.860;4.286;2023-02-28T02:09:08;11.23;;;6.30;;
22737;SDS011;11536;50.860;4.286;2023-02-28T02:11:33;13.98;;;6.53;;
22737;SDS011;11536;50.860;4.286;2023-02-28T02:14:12;12.35;;;6.38;;
22737;SDS011;11536;50.860;4.286;2023-02-28T02:17:04;12.15;;;6.43;;
22737;SDS011;11536;50.860;4.286;2023-02-28T02:25:26;15.02;;;6.95;;
22737;SDS011;11536;50.860;4.286;2023-02-28T02:36:40;11.98;;;6.45;;
22737;SDS011;11536;50.860;4.286;2023-02-28T02:41:55;13.93;;;6.80;;
22737;SDS011;11536;50.860;4.286;2023-02-28T02:46:55;11.98;;;7.18;;
22737;SDS011;11536;50.860;4.286;2023-02-28T02:49:28;8.75;;;5.45;;
22737;SDS011;11536;50.860;4.286;2023-02-28T02:51:57;13.63;;;7.32;;
22737;SDS011;11536;50.860;4.286;2023-02-28T02:54:29;14.82;;;7.97;;
22737;SDS011;11536;50.860;4.286;2023-02-28T02:56:59;12.32;;;7.10;;
22737;SDS011;11536;50.860;4.286;2023-02-28T02:59:28;13.80;;;7.55;;
22737;SDS011;11536;50.860;4.286;2023-02-28T03:01:57;14.18;;;7.32;;
22737;SDS011;11536;50.860;4.286;2023-02-28T03:04:26;13.95;;;7.50;;
22737;SDS011;11536;50.860;4.286;2023-02-28T03:06:57;12.63;;;7.68;;
22737;SDS011;11536;50.860;4.286;2023-02-28T03:09:23;12.48;;;7.55;;
22737;SDS011;11536;50.860;4.286;2023-02-28T03:11:51;14.00;;;7.78;;
22737;SDS011;11536;50.860;4.286;2023-02-28T03:14:25;12.13;;;7.63;;
22737;SDS011;11536;50.860;4.286;2023-02-28T03:17:20;12.50;;;7.82;;
22737;SDS011;11536;50.860;4.286;2023-02-28T03:33:14;14.65;;;7.63;;
22737;SDS011;11536;50.860;4.286;2023-02-28T03:35:54;15.13;;;7.55;;
22737;SDS011;11536;50.860;4.286;2023-02-28T03:41:15;14.85;;;7.95;;
22737;SDS011;11536;50.860;4.286;2023-02-28T03:43:47;15.75;;;8.10;;
22737;SDS011;11536;50.860;4.286;2023-02-28T03:46:25;14.50;;;7.75;;
22737;SDS011;11536;50.860;4.286;2023-02-28T03:49:02;13.45;;;7.63;;
22737;SDS011;11536;50.860;4.286;2023-02-28T03:51:34;14.10;;;7.95;;
22737;SDS011;11536;50.860;4.286;2023-02-28T03:54:05;14.13;;;7.60;;
22737;SDS011;11536;50.860;4.286;2023-02-28T03:56:37;15.93;;;7.57;;
22737;SDS011;11536;50.860;4.286;2023-02-28T04:01:44;19.40;;;7.95;;
22737;SDS011;11536;50.860;4.286;2023-02-28T04:04:12;15.02;;;7.57;;
22737;SDS011;11536;50.860;4.286;2023-02-28T04:06:39;15.45;;;8.05;;
22737;SDS011;11536;50.860;4.286;2023-02-28T04:09:05;14.98;;;7.72;;
22737;SDS011;11536;50.860;4.286;2023-02-28T04:11:39;15.35;;;7.95;;
22737;SDS011;11536;50.860;4.286;2023-02-28T04:14:07;14.68;;;8.10;;
22737;SDS011;11536;50.860;4.286;2023-02-28T04:16:34;14.80;;;8.35;;
22737;SDS011;11536;50.860;4.286;2023-02-28T04:19:05;13.65;;;8.15;;
22737;SDS011;11536;50.860;4.286;2023-02-28T04:21:33;13.57;;;7.88;;
22737;SDS011;11536;50.860;4.286;2023-02-28T04:24:04;13.70;;;7.68;;
22737;SDS011;11536;50.860;4.286;2023-02-28T04:26:31;12.75;;;7.75;;
22737;SDS011;11536;50.860;4.286;2023-02-28T04:28:58;15.07;;;7.93;;
22737;SDS011;11536;50.860;4.286;2023-02-28T04:31:24;13.65;;;8.27;;
22737;SDS011;11536;50.860;4.286;2023-02-28T04:33:50;14.98;;;8.15;;
22737;SDS011;11536;50.860;4.286;2023-02-28T04:36:16;12.07;;;7.93;;
22737;SDS011;11536;50.860;4.286;2023-02-28T04:38:45;15.07;;;8.60;;
22737;SDS011;11536;50.860;4.286;2023-02-28T04:41:14;15.88;;;8.38;;
22737;SDS011;11536;50.860;4.286;2023-02-28T04:43:40;14.13;;;8.07;;
22737;SDS011;11536;50.860;4.286;2023-02-28T04:46:06;13.60;;;8.02;;
22737;SDS011;11536;50.860;4.286;2023-02-28T04:48:33;14.13;;;8.05;;
22737;SDS011;11536;50.860;4.286;2023-02-28T04:51:01;15.85;;;7.63;;
22737;SDS011;11536;50.860;4.286;2023-02-28T04:53:28;14.77;;;8.10;;
22737;SDS011;11536;50.860;4.286;2023-02-28T04:55:54;15.07;;;8.43;;
22737;SDS011;11536;50.860;4.286;2023-02-28T04:58:20;14.35;;;8.30;;
22737;SDS011;11536;50.860;4.286;2023-02-28T05:00:50;16.38;;;8.73;;
22737;SDS011;11536;50.860;4.286;2023-02-28T05:03:16;11.13;;;7.60;;
22737;SDS011;11536;50.860;4.286;2023-02-28T05:05:41;14.25;;;8.50;;
22737;SDS011;11536;50.860;4.286;2023-02-28T05:08:07;15.23;;;8.02;;
22737;SDS011;11536;50.860;4.286;2023-02-28T05:10:34;16.50;;;8.43;;
22737;SDS011;11536;50.860;4.286;2023-02-28T05:13:00;13.68;;;8.82;;
22737;SDS011;11536;50.860;4.286;2023-02-28T05:15:26;16.42;;;8.18;;
22737;SDS011;11536;50.860;4.286;2023-02-28T05:17:51;14.90;;;8.20;;
22737;SDS011;11536;50.860;4.286;2023-02-28T05:20:17;16.70;;;8.40;;
22737;SDS011;11536;50.860;4.286;2023-02-28T05:22:43;16.00;;;7.97;;
22737;SDS011;11536;50.860;4.286;2023-02-28T05:25:10;17.05;;;8.52;;
22737;SDS011;11536;50.860;4.286;2023-02-28T05:27:40;15.27;;;8.57;;
22737;SDS011;11536;50.860;4.286;2023-02-28T05:30:06;16.55;;;8.32;;
22737;SDS011;11536;50.860;4.286;2023-02-28T05:32:35;13.27;;;8.35;;
22737;SDS011;11536;50.860;4.286;2023-02-28T05:35:07;14.82;;;8.15;;
22737;SDS011;11536;50.860;4.286;2023-02-28T05:37:34;14.80;;;8.57;;
22737;SDS011;11536;50.860;4.286;2023-02-28T05:40:00;14.23;;;8.20;;
22737;SDS011;11536;50.860;4.286;2023-02-28T05:42:25;16.83;;;8.45;;
22737;SDS011;11536;50.860;4.286;2023-02-28T05:44:51;15.02;;;8.63;;
22737;SDS011;11536;50.860;4.286;2023-02-28T05:47:16;13.68;;;8.63;;
22737;SDS011;11536;50.860;4.286;2023-02-28T05:49:42;15.90;;;8.40;;
22737;SDS011;11536;50.860;4.286;2023-02-28T05:52:08;15.52;;;8.70;;
22737;SDS011;11536;50.860;4.286;2023-02-28T05:54:34;14.75;;;8.48;;
22737;SDS011;11536;50.860;4.286;2023-02-28T05:56:59;14.02;;;8.68;;
22737;SDS011;11536;50.860;4.286;2023-02-28T05:59:25;17.67;;;8.82;;
22737;SDS011;11536;50.860;4.286;2023-02-28T06:01:50;14.43;;;8.43;;
22737;SDS011;11536;50.860;4.286;2023-02-28T06:04:18;17.40;;;8.80;;
22737;SDS011;11536;50.860;4.286;2023-02-28T06:06:45;14.30;;;7.97;;
22737;SDS011;11536;50.860;4.286;2023-02-28T06:09:12;14.90;;;8.73;;
22737;SDS011;11536;50.860;4.286;2023-02-28T06:11:38;14.48;;;8.75;;
22737;SDS011;11536;50.860;4.286;2023-02-28T06:14:04;14.65;;;8.38;;
22737;SDS011;11536;50.860;4.286;2023-02-28T06:16:36;17.38;;;9.00;;
22737;SDS011;11536;50.860;4.286;2023-02-28T06:19:02;12.68;;;8.27;;
22737;SDS011;11536;50.860;4.286;2023-02-28T06:21:29;18.15;;;9.07;;
22737;SDS011;11536;50.860;4.286;2023-02-28T06:23:55;15.57;;;8.45;;
22737;SDS011;11536;50.860;4.286;2023-02-28T06:26:22;13.80;;;7.82;;
22737;SDS011;11536;50.860;4.286;2023-02-28T06:28:48;13.48;;;8.20;;
22737;SDS011;11536;50.860;4.286;2023-02-28T06:31:14;14.02;;;8.20;;
22737;SDS011;11536;50.860;4.286;2023-02-28T06:33:42;15.20;;;8.65;;
22737;SDS011;11536;50.860;4.286;2023-02-28T06:36:08;18.38;;;8.68;;
22737;SDS011;11536;50.860;4.286;2023-02-28T06:38:35;13.30;;;8.10;;
22737;SDS011;11536;50.860;4.286;2023-02-28T06:41:01;14.88;;;8.68;;
22737;SDS011;11536;50.860;4.286;2023-02-28T06:43:32;14.85;;;8.25;;
22737;SDS011;11536;50.860;4.286;2023-02-28T06:46:00;15.55;;;8.70;;
22737;SDS011;11536;50.860;4.286;2023-02-28T06:48:27;13.43;;;7.80;;
22737;SDS011;11536;50.860;4.286;2023-02-28T06:51:01;14.88;;;8.02;;
22737;SDS011;11536;50.860;4.286;2023-02-28T06:53:28;16.80;;;8.00;;
22737;SDS011;11536;50.860;4.286;2023-02-28T06:55:54;15.50;;;8.60;;
22737;SDS011;11536;50.860;4.286;2023-02-28T06:58:19;14.18;;;8.07;;
22737;SDS011;11536;50.860;4.286;2023-02-28T07:00:45;13.88;;;8.15;;
22737;SDS011;11536;50.860;4.286;2023-02-28T07:03:15;13.48;;;7.93;;
22737;SDS011;11536;50.860;4.286;2023-02-28T07:05:41;13.52;;;8.02;;
22737;SDS011;11536;50.860;4.286;2023-02-28T07:08:07;14.98;;;8.23;;
22737;SDS011;11536;50.860;4.286;2023-02-28T07:10:33;14.27;;;7.55;;
22737;SDS011;11536;50.860;4.286;2023-02-28T07:12:59;14.57;;;8.02;;
22737;SDS011;11536;50.860;4.286;2023-02-28T07:15:25;13.43;;;7.50;;
22737;SDS011;11536;50.860;4.286;2023-02-28T07:17:51;14.18;;;8.20;;
22737;SDS011;11536;50.860;4.286;2023-02-28T07:20:17;13.02;;;8.15;;
22737;SDS011;11536;50.860;4.286;2023-02-28T07:22:42;18.25;;;8.32;;
22737;SDS011;11536;50.860;4.286;2023-02-28T07:25:08;15.15;;;9.10;;
22737;SDS011;11536;50.860;4.286;2023-02-28T07:27:34;16.10;;;7.90;;
22737;SDS011;11536;50.860;4.286;2023-02-28T07:29:59;14.10;;;8.27;;
22737;SDS011;11536;50.860;4.286;2023-02-28T07:32:28;15.40;;;8.05;;
22737;SDS011;11536;50.860;4.286;2023-02-28T07:34:54;15.35;;;8.50;;
22737;SDS011;11536;50.860;4.286;2023-02-28T07:37:20;13.93;;;7.88;;
22737;SDS011;11536;50.860;4.286;2023-02-28T07:39:47;14.23;;;8.45;;
22737;SDS011;11536;50.860;4.286;2023-02-28T07:42:12;15.20;;;8.68;;
22737;SDS011;11536;50.860;4.286;2023-02-28T07:44:38;18.17;;;8.45;;
22737;SDS011;11536;50.860;4.286;2023-02-28T07:47:08;13.48;;;7.68;;
22737;SDS011;11536;50.860;4.286;2023-02-28T07:49:38;16.05;;;8.50;;
22737;SDS011;11536;50.860;4.286;2023-02-28T07:52:04;13.15;;;7.38;;
22737;SDS011;11536;50.860;4.286;2023-02-28T07:54:31;14.20;;;7.47;;
22737;SDS011;11536;50.860;4.286;2023-02-28T07:56:57;15.00;;;7.30;;
22737;SDS011;11536;50.860;4.286;2023-02-28T07:59:22;12.95;;;7.18;;
22737;SDS011;11536;50.860;4.286;2023-02-28T08:01:48;15.07;;;6.90;;
22737;SDS011;11536;50.860;4.286;2023-02-28T08:04:15;9.98;;;6.05;;
22737;SDS011;11536;50.860;4.286;2023-02-28T08:06:42;14.65;;;7.10;;
22737;SDS011;11536;50.860;4.286;2023-02-28T08:09:07;14.07;;;6.47;;
22737;SDS011;11536;50.860;4.286;2023-02-28T08:11:33;10.45;;;5.97;;
22737;SDS011;11536;50.860;4.286;2023-02-28T08:13:59;13.30;;;6.00;;
22737;SDS011;11536;50.860;4.286;2023-02-28T08:16:24;11.50;;;6.32;;
22737;SDS011;11536;50.860;4.286;2023-02-28T08:18:51;9.20;;;5.35;;
22737;SDS011;11536;50.860;4.286;2023-02-28T08:21:17;14.55;;;5.18;;
22737;SDS011;11536;50.860;4.286;2023-02-28T08:23:46;8.18;;;4.78;;
22737;SDS011;11536;50.860;4.286;2023-02-28T08:26:12;8.80;;;4.13;;
22737;SDS011;11536;50.860;4.286;2023-02-28T08:28:38;9.82;;;4.15;;
22737;SDS011;11536;50.860;4.286;2023-02-28T08:31:11;9.90;;;4.05;;
22737;SDS011;11536;50.860;4.286;2023-02-28T08:33:39;8.35;;;3.88;;
22737;SDS011;11536;50.860;4.286;2023-02-28T08:36:07;8.82;;;4.00;;
22737;SDS011;11536;50.860;4.286;2023-02-28T08:38:33;8.18;;;3.83;;
22737;SDS011;11536;50.860;4.286;2023-02-28T08:41:00;10.32;;;3.50;;
22737;SDS011;11536;50.860;4.286;2023-02-28T08:43:28;8.15;;;3.58;;
22737;SDS011;11536;50.860;4.286;2023-02-28T08:45:54;9.52;;;4.28;;
22737;SDS011;11536;50.860;4.286;2023-02-28T08:48:22;8.90;;;4.07;;
22737;SDS011;11536;50.860;4.286;2023-02-28T08:53:24;9.90;;;4.20;;
22737;SDS011;11536;50.860;4.286;2023-02-28T08:56:02;8.30;;;4.22;;
22737;SDS011;11536;50.860;4.286;2023-02-28T08:58:33;9.73;;;3.95;;
22737;SDS011;11536;50.860;4.286;2023-02-28T09:00:59;6.65;;;3.63;;
22737;SDS011;11536;50.860;4.286;2023-02-28T09:03:25;6.75;;;3.70;;
22737;SDS011;11536;50.860;4.286;2023-02-28T09:05:58;7.22;;;3.47;;
22737;SDS011;11536;50.860;4.286;2023-02-28T09:08:25;7.00;;;3.53;;
22737;SDS011;11536;50.860;4.286;2023-02-28T09:10:52;7.90;;;3.08;;
22737;SDS011;11536;50.860;4.286;2023-02-28T09:13:19;8.57;;;3.72;;
22737;SDS011;11536;50.860;4.286;2023-02-28T09:15:45;5.97;;;3.05;;
22737;SDS011;11536;50.860;4.286;2023-02-28T09:18:11;8.18;;;3.63;;
22737;SDS011;11536;50.860;4.286;2023-02-28T09:20:37;12.15;;;3.47;;
22737;SDS011;11536;50.860;4.286;2023-02-28T09:23:06;10.07;;;3.60;;
22737;SDS011;11536;50.860;4.286;2023-02-28T09:25:32;7.63;;;3.55;;
22737;SDS011;11536;50.860;4.286;2023-02-28T09:27:58;6.15;;;3.30;;
22737;SDS011;11536;50.860;4.286;2023-02-28T09:30:24;8.00;;;3.75;;
22737;SDS011;11536;50.860;4.286;2023-02-28T09:32:50;8.38;;;3.72;;
22737;SDS011;11536;50.860;4.286;2023-02-28T09:35:17;6.53;;;3.50;;
22737;SDS011;11536;50.860;4.286;2023-02-28T09:37:43;7.63;;;3.80;;
22737;SDS011;11536;50.860;4.286;2023-02-28T09:40:11;6.88;;;3.35;;
22737;SDS011;11536;50.860;4.286;2023-02-28T09:42:38;6.85;;;3.22;;
22737;SDS011;11536;50.860;4.286;2023-02-28T09:45:13;6.38;;;3.60;;
22737;SDS011;11536;50.860;4.286;2023-02-28T09:47:54;5.65;;;3.13;;
22737;SDS011;11536;50.860;4.286;2023-02-28T09:50:32;6.60;;;3.03;;
22737;SDS011;11536;50.860;4.286;2023-02-28T09:53:05;7.65;;;2.97;;
22737;SDS011;11536;50.860;4.286;2023-02-28T09:55:55;8.43;;;3.13;;
22737;SDS011;11536;50.860;4.286;2023-02-28T10:04:08;5.53;;;2.70;;
22737;SDS011;11536;50.860;4.286;2023-02-28T10:06:54;7.07;;;2.95;;
22737;SDS011;11536;50.860;4.286;2023-02-28T10:09:26;6.35;;;2.90;;
22737;SDS011;11536;50.860;4.286;2023-02-28T10:12:01;5.57;;;2.67;;
22737;SDS011;11536;50.860;4.286;2023-02-28T10:14:30;5.38;;;2.58;;
22737;SDS011;11536;50.860;4.286;2023-02-28T10:17:12;7.15;;;2.90;;
22737;SDS011;11536;50.860;4.286;2023-02-28T10:20:04;7.25;;;2.67;;
22737;SDS011;11536;50.860;4.286;2023-02-28T10:25:35;5.55;;;2.35;;
22737;SDS011;11536;50.860;4.286;2023-02-28T10:28:12;9.52;;;2.90;;
22737;SDS011;11536;50.860;4.286;2023-02-28T10:30:45;5.22;;;2.58;;
22737;SDS011;11536;50.860;4.286;2023-02-28T10:33:23;6.43;;;2.70;;
22737;SDS011;11536;50.860;4.286;2023-02-28T10:35:49;5.45;;;2.75;;
22737;SDS011;11536;50.860;4.286;2023-02-28T10:38:18;5.72;;;2.70;;
22737;SDS011;11536;50.860;4.286;2023-02-28T10:40:47;5.85;;;2.50;;
22737;SDS011;11536;50.860;4.286;2023-02-28T10:45:38;5.75;;;2.83;;
22737;SDS011;11536;50.860;4.286;2023-02-28T10:50:43;4.70;;;2.40;;
22737;SDS011;11536;50.860;4.286;2023-02-28T10:55:40;6.47;;;2.58;;
22737;SDS011;11536;50.860;4.286;2023-02-28T10:58:26;5.72;;;2.03;;
22737;SDS011;11536;50.860;4.286;2023-02-28T11:00:54;4.50;;;2.15;;
22737;SDS011;11536;50.860;4.286;2023-02-28T11:03:30;3.72;;;1.83;;
22737;SDS011;11536;50.860;4.286;2023-02-28T11:05:58;4.65;;;2.00;;
22737;SDS011;11536;50.860;4.286;2023-02-28T11:08:30;5.10;;;1.80;;
22737;SDS011;11536;50.860;4.286;2023-02-28T11:10:56;4.07;;;1.98;;
22737;SDS011;11536;50.860;4.286;2023-02-28T11:13:32;3.40;;;1.83;;
22737;SDS011;11536;50.860;4.286;2023-02-28T11:16:00;6.70;;;2.13;;
22737;SDS011;11536;50.860;4.286;2023-02-28T11:21:28;4.05;;;2.20;;
22737;SDS011;11536;50.860;4.286;2023-02-28T11:26:52;4.73;;;2.40;;
22737;SDS011;11536;50.860;4.286;2023-02-28T11:29:19;4.35;;;2.20;;
22737;SDS011;11536;50.860;4.286;2023-02-28T11:34:33;7.78;;;2.50;;
22737;SDS011;11536;50.860;4.286;2023-02-28T11:37:01;4.82;;;2.22;;
22737;SDS011;11536;50.860;4.286;2023-02-28T11:39:32;5.90;;;2.35;;
22737;SDS011;11536;50.860;4.286;2023-02-28T11:44:43;5.47;;;2.13;;
22737;SDS011;11536;50.860;4.286;2023-02-28T11:53:10;6.40;;;2.40;;
22737;SDS011;11536;50.860;4.286;2023-02-28T11:55:42;5.10;;;2.47;;
22737;SDS011;11536;50.860;4.286;2023-02-28T11:58:24;5.60;;;2.90;;
22737;SDS011;11536;50.860;4.286;2023-02-28T12:08:57;5.57;;;2.13;;
22737;SDS011;11536;50.860;4.286;2023-02-28T12:25:21;7.07;;;2.80;;
22737;SDS011;11536;50.860;4.286;2023-02-28T12:28:01;4.97;;;2.72;;
22737;SDS011;11536;50.860;4.286;2023-02-28T12:30:32;4.50;;;2.50;;
22737;SDS011;11536;50.860;4.286;2023-02-28T12:33:07;7.18;;;2.88;;
22737;SDS011;11536;50.860;4.286;2023-02-28T12:35:44;5.20;;;2.53;;
22737;SDS011;11536;50.860;4.286;2023-02-28T12:38:19;5.43;;;2.92;;
22737;SDS011;11536;50.860;4.286;2023-02-28T12:41:00;5.13;;;2.30;;
22737;SDS011;11536;50.860;4.286;2023-02-28T12:43:34;6.88;;;2.85;;
22737;SDS011;11536;50.860;4.286;2023-02-28T12:46:09;6.93;;;2.50;;
22737;SDS011;11536;50.860;4.286;2023-02-28T12:51:21;6.30;;;2.60;;
22737;SDS011;11536;50.860;4.286;2023-02-28T12:54:02;6.55;;;2.60;;
22737;SDS011;11536;50.860;4.286;2023-02-28T12:56:38;6.13;;;2.40;;
22737;SDS011;11536;50.860;4.286;2023-02-28T12:59:31;6.35;;;2.70;;
22737;SDS011;11536;50.860;4.286;2023-02-28T13:02:01;6.65;;;2.25;;
22737;SDS011;11536;50.860;4.286;2023-02-28T13:10:17;6.28;;;2.83;;
22737;SDS011;11536;50.860;4.286;2023-02-28T13:12:47;4.75;;;2.30;;
22737;SDS011;11536;50.860;4.286;2023-02-28T13:15:19;4.82;;;2.45;;
22737;SDS011;11536;50.860;4.286;2023-02-28T13:17:50;7.25;;;2.50;;
22737;SDS011;11536;50.860;4.286;2023-02-28T13:20:25;8.23;;;2.20;;
22737;SDS011;11536;50.860;4.286;2023-02-28T13:27:59;6.15;;;2.80;;
22737;SDS011;11536;50.860;4.286;2023-02-28T13:33:24;4.93;;;2.47;;
22737;SDS011;11536;50.860;4.286;2023-02-28T13:38:35;5.95;;;2.55;;
22737;SDS011;11536;50.860;4.286;2023-02-28T13:46:25;5.53;;;2.58;;
22737;SDS011;11536;50.860;4.286;2023-02-28T13:48:51;4.43;;;2.30;;
22737;SDS011;11536;50.860;4.286;2023-02-28T13:51:27;4.63;;;2.40;;
22737;SDS011;11536;50.860;4.286;2023-02-28T13:56:57;6.30;;;2.38;;
22737;SDS011;11536;50.860;4.286;2023-02-28T14:05:19;7.82;;;3.00;;
22737;SDS011;11536;50.860;4.286;2023-02-28T14:07:57;5.97;;;2.47;;
22737;SDS011;11536;50.860;4.286;2023-02-28T14:10:33;5.65;;;2.75;;
22737;SDS011;11536;50.860;4.286;2023-02-28T14:16:17;6.25;;;2.70;;
22737;SDS011;11536;50.860;4.286;2023-02-28T14:18:51;5.38;;;3.30;;
22737;SDS011;11536;50.860;4.286;2023-02-28T14:27:05;6.38;;;2.80;;
22737;SDS011;11536;50.860;4.286;2023-02-28T14:29:52;8.15;;;2.80;;
22737;SDS011;11536;50.860;4.286;2023-02-28T14:32:55;5.47;;;2.35;;
22737;SDS011;11536;50.860;4.286;2023-02-28T14:38:13;4.57;;;2.45;;
22737;SDS011;11536;50.860;4.286;2023-02-28T14:40:46;6.13;;;2.83;;
22737;SDS011;11536;50.860;4.286;2023-02-28T14:43:24;7.90;;;3.10;;
22737;SDS011;11536;50.860;4.286;2023-02-28T14:45:52;5.82;;;3.15;;
22737;SDS011;11536;50.860;4.286;2023-02-28T14:48:29;5.60;;;2.80;;
22737;SDS011;11536;50.860;4.286;2023-02-28T14:50:55;6.15;;;2.90;;
22737;SDS011;11536;50.860;4.286;2023-02-28T14:53:24;4.88;;;2.47;;
22737;SDS011;11536;50.860;4.286;2023-02-28T14:55:55;5.65;;;2.63;;
22737;SDS011;11536;50.860;4.286;2023-02-28T14:58:28;6.88;;;2.42;;
22737;SDS011;11536;50.860;4.286;2023-02-28T15:00:57;5.32;;;2.88;;
22737;SDS011;11536;50.860;4.286;2023-02-28T15:03:38;6.47;;;3.05;;
22737;SDS011;11536;50.860;4.286;2023-02-28T15:06:05;5.70;;;2.92;;
22737;SDS011;11536;50.860;4.286;2023-02-28T15:08:42;6.50;;;2.97;;
22737;SDS011;11536;50.860;4.286;2023-02-28T15:13:40;5.63;;;2.95;;
22737;SDS011;11536;50.860;4.286;2023-02-28T15:16:10;5.82;;;2.90;;
22737;SDS011;11536;50.860;4.286;2023-02-28T15:23:59;8.68;;;3.17;;
22737;SDS011;11536;50.860;4.286;2023-02-28T15:26:39;6.35;;;3.15;;
22737;SDS011;11536;50.860;4.286;2023-02-28T15:29:12;8.05;;;3.30;;
22737;SDS011;11536;50.860;4.286;2023-02-28T15:31:49;6.15;;;3.05;;
22737;SDS011;11536;50.860;4.286;2023-02-28T15:34:25;6.63;;;3.33;;
22737;SDS011;11536;50.860;4.286;2023-02-28T15:36:58;6.38;;;3.30;;
22737;SDS011;11536;50.860;4.286;2023-02-28T15:39:25;7.35;;;3.78;;
22737;SDS011;11536;50.860;4.286;2023-02-28T15:42:09;7.93;;;3.08;;
22737;SDS011;11536;50.860;4.286;2023-02-28T15:44:36;6.50;;;3.40;;
22737;SDS011;11536;50.860;4.286;2023-02-28T15:47:06;6.35;;;3.50;;
22737;SDS011;11536;50.860;4.286;2023-02-28T15:49:47;8.93;;;4.03;;
22737;SDS011;11536;50.860;4.286;2023-02-28T15:52:26;7.53;;;3.42;;
22737;SDS011;11536;50.860;4.286;2023-02-28T15:55:17;6.68;;;3.20;;
22737;SDS011;11536;50.860;4.286;2023-02-28T15:57:50;6.63;;;3.22;;
22737;SDS011;11536;50.860;4.286;2023-02-28T16:00:22;6.53;;;3.35;;
22737;SDS011;11536;50.860;4.286;2023-02-28T16:05:22;8.32;;;3.22;;
22737;SDS011;11536;50.860;4.286;2023-02-28T16:08:00;10.57;;;3.78;;
22737;SDS011;11536;50.860;4.286;2023-02-28T16:10:36;9.68;;;3.45;;
22737;SDS011;11536;50.860;4.286;2023-02-28T16:13:02;8.27;;;3.72;;
22737;SDS011;11536;50.860;4.286;2023-02-28T16:15:31;7.00;;;3.30;;
22737;SDS011;11536;50.860;4.286;2023-02-28T16:18:07;9.18;;;3.72;;
22737;SDS011;11536;50.860;4.286;2023-02-28T16:20:35;7.63;;;3.22;;
22737;SDS011;11536;50.860;4.286;2023-02-28T16:23:01;7.65;;;3.60;;
22737;SDS011;11536;50.860;4.286;2023-02-28T16:25:34;7.63;;;4.20;;
22737;SDS011;11536;50.860;4.286;2023-02-28T16:28:07;7.40;;;3.78;;
22737;SDS011;11536;50.860;4.286;2023-02-28T16:30:42;6.72;;;3.55;;
22737;SDS011;11536;50.860;4.286;2023-02-28T16:33:08;7.82;;;3.80;;
22737;SDS011;11536;50.860;4.286;2023-02-28T16:35:34;7.05;;;3.58;;
22737;SDS011;11536;50.860;4.286;2023-02-28T16:38:00;6.70;;;3.58;;
22737;SDS011;11536;50.860;4.286;2023-02-28T16:40:26;6.25;;;3.20;;
22737;SDS011;11536;50.860;4.286;2023-02-28T16:42:54;8.05;;;3.33;;
22737;SDS011;11536;50.860;4.286;2023-02-28T16:45:24;6.70;;;3.67;;
22737;SDS011;11536;50.860;4.286;2023-02-28T16:47:53;6.47;;;3.30;;
22737;SDS011;11536;50.860;4.286;2023-02-28T16:50:21;8.98;;;3.35;;
22737;SDS011;11536;50.860;4.286;2023-02-28T16:52:58;14.60;;;7.38;;
22737;SDS011;11536;50.860;4.286;2023-02-28T16:55:24;10.60;;;5.18;;
22737;SDS011;11536;50.860;4.286;2023-02-28T16:57:51;7.78;;;3.53;;
22737;SDS011;11536;50.860;4.286;2023-02-28T17:00:22;9.05;;;3.72;;
22737;SDS011;11536;50.860;4.286;2023-02-28T17:02:49;8.02;;;4.40;;
22737;SDS011;11536;50.860;4.286;2023-02-28T17:05:15;7.20;;;3.50;;
22737;SDS011;11536;50.860;4.286;2023-02-28T17:07:42;7.43;;;3.60;;
22737;SDS011;11536;50.860;4.286;2023-02-28T17:10:10;8.63;;;4.15;;
22737;SDS011;11536;50.860;4.286;2023-02-28T17:12:40;7.38;;;4.05;;
22737;SDS011;11536;50.860;4.286;2023-02-28T17:15:06;7.30;;;3.83;;
22737;SDS011;11536;50.860;4.286;2023-02-28T17:17:32;7.28;;;3.50;;
22737;SDS011;11536;50.860;4.286;2023-02-28T17:19:58;8.10;;;4.28;;
22737;SDS011;11536;50.860;4.286;2023-02-28T17:22:24;8.20;;;5.28;;
22737;SDS011;11536;50.860;4.286;2023-02-28T17:24:51;9.00;;;3.72;;
22737;SDS011;11536;50.860;4.286;2023-02-28T17:27:20;6.65;;;3.70;;